Time;durP1;ratioP1;P1;durP2;ratioP2;P2;SDS_P1;SDS_P2;PMS_P1;PMS_P2;Temp;Humidity;BMP_temperature;BMP_pressure;BME280_temperature;BME280_humidity;BME280_pressure;Samples;Min_cycle;Max_cycle;Signal;HPM_P1;HPM_P2
2022/01/10 00:00:20;;;;;;;12.20;5.03;;;5.80;71.10;;;;;;5071023;28;20032;-69
2022/01/10 00:02:48;;;;;;;17.40;8.77;;;5.90;71.00;;;;;;5072368;28;20044;-69
2022/01/10 00:05:14;;;;;;;28.38;15.35;;;6.00;70.60;;;;;;5070597;28;20116;-68
2022/01/10 00:07:40;;;;;;;21.55;11.18;;;6.10;70.20;;;;;;5071400;28;20060;-69
2022/01/10 00:10:06;;;;;;;19.90;10.65;;;6.20;70.00;;;;;;5072091;28;20086;-69
2022/01/10 00:12:32;;;;;;;11.27;5.50;;;6.20;69.90;;;;;;5071158;28;20053;-69
2022/01/10 00:14:58;;;;;;;9.60;4.65;;;6.30;70.00;;;;;;5071065;28;20031;-69
2022/01/10 00:17:24;;;;;;;10.27;5.93;;;6.30;69.90;;;;;;5069532;28;20029;-68
2022/01/10 00:19:50;;;;;;;16.80;7.32;;;6.40;69.90;;;;;;5066568;28;20055;-70
2022/01/10 00:22:15;;;;;;;14.38;5.47;;;6.40;69.70;;;;;;5071520;28;20047;-68
2022/01/10 00:24:41;;;;;;;15.13;6.43;;;6.40;69.70;;;;;;5071065;28;20024;-70
2022/01/10 00:27:07;;;;;;;11.82;4.63;;;6.40;69.70;;;;;;5071552;28;20051;-68
2022/01/10 00:29:33;;;;;;;18.02;7.25;;;6.40;69.70;;;;;;5070201;28;20137;-69
2022/01/10 00:31:58;;;;;;;22.85;12.05;;;6.40;69.90;;;;;;5071445;28;20029;-68
2022/01/10 00:34:26;;;;;;;35.55;21.25;;;6.40;69.70;;;;;;5071145;28;20028;-69
2022/01/10 00:36:52;;;;;;;38.30;21.92;;;6.40;69.10;;;;;;5070681;28;20037;-68
2022/01/10 00:39:18;;;;;;;39.60;23.98;;;6.30;69.30;;;;;;5068905;28;20035;-68
2022/01/10 00:41:47;;;;;;;36.63;21.40;;;6.20;69.40;;;;;;5071740;28;20070;-68
2022/01/10 00:44:13;;;;;;;34.60;20.45;;;6.20;69.50;;;;;;5070500;28;20472;-68
2022/01/10 00:46:40;;;;;;;36.05;21.48;;;6.20;69.50;;;;;;5070188;28;20032;-69
2022/01/10 00:49:06;;;;;;;39.55;21.60;;;6.10;69.50;;;;;;5070858;28;20050;-69
2022/01/10 00:51:32;;;;;;;43.47;25.05;;;6.10;69.50;;;;;;5069918;28;20039;-69
2022/01/10 00:53:57;;;;;;;42.30;24.60;;;6.10;69.50;;;;;;5071306;28;20099;-68
2022/01/10 00:56:24;;;;;;;41.25;26.08;;;6.10;69.60;;;;;;5068161;28;20450;-68
2022/01/10 00:58:50;;;;;;;45.40;25.23;;;6.10;69.60;;;;;;5070160;28;20028;-68
2022/01/10 01:01:17;;;;;;;40.45;24.65;;;6.10;69.50;;;;;;5069385;28;20089;-68
2022/01/10 01:03:44;;;;;;;44.15;24.85;;;6.10;69.50;;;;;;5069277;28;20025;-69
2022/01/10 01:06:11;;;;;;;25.42;15.27;;;6.10;69.50;;;;;;5071264;28;20036;-68
2022/01/10 01:08:37;;;;;;;28.10;17.13;;;6.20;69.60;;;;;;5068663;28;20033;-68
2022/01/10 01:13:54;;;;;;;30.85;17.02;;;6.20;69.50;;;;;;5071423;28;20109;-69
2022/01/10 01:24:15;;;;;;;27.58;15.07;;;6.20;69.30;;;;;;5070551;28;20557;-68
2022/01/10 01:26:49;;;;;;;15.45;7.57;;;6.30;69.30;;;;;;5070033;28;20033;-69
2022/01/10 01:29:17;;;;;;;;;;;6.30;69.20;;;;;;5071166;28;20035;-68
2022/01/10 01:31:43;;;;;;;17.63;9.90;;;6.30;69.10;;;;;;5069956;28;19961;-68
2022/01/10 01:34:10;;;;;;;41.75;21.30;;;6.30;69.10;;;;;;5070573;28;20028;-68
2022/01/10 01:36:37;;;;;;;38.88;22.02;;;6.20;69.00;;;;;;5069078;28;20033;-68
2022/01/10 01:39:10;;;;;;;36.88;22.70;;;6.20;69.10;;;;;;5068695;28;20044;-68
2022/01/10 01:41:40;;;;;;;;;;;6.30;69.30;;;;;;5069616;28;20444;-68
2022/01/10 01:44:06;;;;;;;35.22;20.83;;;6.30;69.00;;;;;;5070097;28;20323;-68
2022/01/10 01:46:37;;;;;;;31.10;15.57;;;6.30;69.10;;;;;;5068651;28;20078;-68
2022/01/10 01:49:05;;;;;;;35.90;19.75;;;6.30;69.00;;;;;;5068578;28;20150;-68
2022/01/10 01:51:31;;;;;;;31.95;18.25;;;6.30;68.80;;;;;;5069163;28;20024;-68
2022/01/10 01:53:57;;;;;;;33.92;18.98;;;6.30;69.00;;;;;;5070085;28;20107;-68
2022/01/10 01:56:23;;;;;;;43.38;26.25;;;6.20;69.00;;;;;;5068517;28;20111;-68
2022/01/10 01:58:55;;;;;;;45.40;27.63;;;6.20;68.90;;;;;;5068776;28;20029;-68
2022/01/10 02:01:22;;;;;;;49.22;29.30;;;6.10;68.80;;;;;;5068617;28;20035;-68
2022/01/10 02:03:49;;;;;;;49.35;29.65;;;6.10;68.90;;;;;;5069229;28;20032;-68
2022/01/10 02:06:15;;;;;;;48.45;28.02;;;6.10;69.10;;;;;;5069566;28;20238;-68
2022/01/10 02:08:42;;;;;;;47.25;27.00;;;6.10;69.10;;;;;;5069326;28;20059;-68
2022/01/10 02:11:11;;;;;;;47.45;28.45;;;6.00;69.00;;;;;;5070060;28;20028;-67
2022/01/10 02:13:37;;;;;;;49.53;28.67;;;6.10;69.10;;;;;;5069193;28;20305;-68
2022/01/10 02:16:06;;;;;;;45.92;27.33;;;6.00;69.20;;;;;;5069920;28;20036;-68
2022/01/10 02:18:33;;;;;;;46.08;29.38;;;6.00;69.30;;;;;;5066623;28;20032;-68
2022/01/10 02:21:02;;;;;;;49.22;28.85;;;6.00;69.40;;;;;;5068501;28;20032;-68
2022/01/10 02:23:28;;;;;;;52.95;29.75;;;6.00;69.30;;;;;;5067822;28;20036;-69
2022/01/10 02:25:55;;;;;;;49.05;30.65;;;6.00;69.10;;;;;;5069335;28;20078;-69
2022/01/10 02:28:22;;;;;;;52.13;31.10;;;6.10;69.20;;;;;;5067778;28;20401;-69
2022/01/10 02:30:55;;;;;;;53.05;30.02;;;6.10;69.20;;;;;;5072313;28;20481;-68
2022/01/10 02:33:21;;;;;;;47.15;28.40;;;6.10;69.30;;;;;;5073048;28;20067;-69
2022/01/10 02:35:57;;;;;;;46.80;27.50;;;6.10;69.20;;;;;;5073318;28;20484;-68
2022/01/10 02:38:23;;;;;;;43.38;26.05;;;6.00;70.00;;;;;;5072651;28;20050;-69
2022/01/10 02:40:50;;;;;;;46.92;27.67;;;6.10;69.60;;;;;;5073476;28;20419;-67
2022/01/10 02:43:18;;;;;;;44.05;25.48;;;6.10;69.60;;;;;;5072923;28;20067;-68
2022/01/10 02:45:44;;;;;;;41.92;25.70;;;6.20;69.50;;;;;;5071765;28;20036;-67
2022/01/10 02:48:10;;;;;;;46.95;24.23;;;6.20;69.40;;;;;;5074167;28;20032;-68
2022/01/10 02:50:36;;;;;;;41.28;25.20;;;6.20;69.20;;;;;;5072910;28;20032;-68
2022/01/10 02:53:02;;;;;;;45.67;25.52;;;6.20;69.50;;;;;;5073588;28;20025;-68
2022/01/10 02:55:28;;;;;;;39.13;23.45;;;6.20;69.40;;;;;;5071448;28;20041;-68
2022/01/10 02:57:54;;;;;;;40.45;23.58;;;6.30;69.40;;;;;;5072989;28;20021;-69
2022/01/10 03:00:24;;;;;;;39.13;22.77;;;6.30;69.30;;;;;;5071900;28;20031;-69
2022/01/10 03:02:52;;;;;;;39.97;22.70;;;6.30;69.20;;;;;;5073246;28;20079;-69
2022/01/10 03:05:19;;;;;;;39.40;23.73;;;6.40;69.10;;;;;;5073773;28;20118;-69
2022/01/10 03:07:46;;;;;;;45.28;26.80;;;6.40;69.10;;;;;;5071447;28;20028;-69
2022/01/10 03:10:13;;;;;;;41.67;24.35;;;6.40;69.00;;;;;;5071695;28;20039;-69
2022/01/10 03:12:40;;;;;;;39.28;20.58;;;6.40;68.90;;;;;;5070892;28;20361;-69
2022/01/10 03:15:07;;;;;;;41.00;24.55;;;6.40;68.90;;;;;;5073392;28;20062;-69
2022/01/10 03:17:35;;;;;;;41.67;24.10;;;6.40;68.90;;;;;;5071051;28;20028;-69
2022/01/10 03:20:01;;;;;;;43.97;26.35;;;6.40;68.80;;;;;;5071715;28;20388;-68
2022/01/10 03:22:27;;;;;;;37.83;24.00;;;6.50;68.80;;;;;;5072860;28;20024;-68
2022/01/10 03:24:55;;;;;;;41.25;26.30;;;6.50;68.50;;;;;;5072096;28;20044;-68
2022/01/10 03:27:21;;;;;;;47.10;27.27;;;6.50;68.50;;;;;;5072084;28;20079;-68
2022/01/10 03:29:47;;;;;;;45.80;28.45;;;6.50;68.40;;;;;;5073028;28;20425;-68
2022/01/10 03:32:12;;;;;;;45.50;28.25;;;6.40;68.70;;;;;;5072679;28;20028;-69
2022/01/10 03:34:39;;;;;;;41.22;26.17;;;6.40;68.80;;;;;;5070803;28;20646;-68
2022/01/10 03:37:05;;;;;;;43.47;25.73;;;6.50;68.80;;;;;;5072240;28;20028;-69
2022/01/10 03:39:32;;;;;;;44.83;25.55;;;6.50;68.60;;;;;;5071224;28;20036;-68
2022/01/10 03:41:58;;;;;;;21.27;11.70;;;6.60;68.60;;;;;;5072016;28;20074;-68
2022/01/10 03:44:24;;;;;;;38.17;22.30;;;6.50;68.40;;;;;;5071753;28;20444;-69
2022/01/10 03:46:50;;;;;;;31.52;17.67;;;6.60;68.50;;;;;;5070977;28;20036;-67
2022/01/10 03:49:16;;;;;;;21.55;12.75;;;6.60;68.50;;;;;;5072271;28;20024;-69
2022/01/10 03:51:42;;;;;;;16.45;8.10;;;6.60;68.40;;;;;;5072016;28;20024;-69
2022/01/10 03:54:07;;;;;;;14.55;7.20;;;6.60;68.20;;;;;;5072253;28;20055;-68
2022/01/10 03:56:33;;;;;;;11.15;5.40;;;6.60;68.10;;;;;;5071200;28;20111;-68
2022/01/10 03:58:59;;;;;;;11.88;6.03;;;6.70;68.10;;;;;;5070642;28;20032;-69
2022/01/10 04:01:25;;;;;;;9.15;4.38;;;6.70;68.10;;;;;;5070850;28;20032;-69
2022/01/10 04:03:52;;;;;;;9.55;4.43;;;6.70;68.00;;;;;;5071976;28;20477;-68
2022/01/10 04:06:18;;;;;;;14.98;5.72;;;6.70;68.10;;;;;;5072248;28;20067;-68
2022/01/10 04:08:44;;;;;;;20.08;11.43;;;6.70;68.30;;;;;;5071766;28;20473;-69
2022/01/10 04:11:10;;;;;;;32.47;20.30;;;6.70;68.30;;;;;;5070889;28;20028;-67
2022/01/10 04:13:36;;;;;;;37.20;22.58;;;6.60;68.00;;;;;;5071127;28;20036;-69
2022/01/10 04:16:02;;;;;;;35.45;20.95;;;6.50;68.30;;;;;;5070723;28;20029;-69
2022/01/10 04:18:28;;;;;;;29.27;16.63;;;6.50;68.60;;;;;;5069138;28;20040;-68
2022/01/10 04:20:54;;;;;;;33.15;19.73;;;6.50;68.60;;;;;;5068217;28;20384;-69
2022/01/10 04:23:20;;;;;;;36.28;21.40;;;6.50;68.70;;;;;;5071262;28;20028;-68
2022/01/10 04:25:46;;;;;;;31.25;18.48;;;6.50;68.90;;;;;;5071326;28;20029;-69
2022/01/10 04:28:12;;;;;;;25.77;13.90;;;6.50;69.00;;;;;;5072077;28;20462;-69
2022/01/10 04:30:38;;;;;;;29.48;16.35;;;6.50;69.20;;;;;;5071350;28;20528;-69
2022/01/10 04:33:04;;;;;;;18.38;9.55;;;6.50;69.50;;;;;;5071675;28;20107;-69
2022/01/10 04:35:31;;;;;;;10.40;5.10;;;6.50;69.60;;;;;;5069160;28;20485;-69
2022/01/10 04:37:57;;;;;;;12.65;5.57;;;6.60;69.60;;;;;;5070033;28;20029;-69
2022/01/10 04:40:24;;;;;;;23.30;8.40;;;6.70;69.60;;;;;;5069730;28;20048;-68
2022/01/10 04:42:51;;;;;;;12.60;6.07;;;6.70;70.20;;;;;;5061399;28;20107;-69
2022/01/10 04:45:17;;;;;;;12.63;4.72;;;6.80;69.50;;;;;;5071620;28;20040;-69
2022/01/10 04:47:43;;;;;;;8.65;4.15;;;6.80;69.30;;;;;;5069565;28;20029;-67
2022/01/10 04:52:38;;;;;;;12.73;4.63;;;6.70;69.20;;;;;;5068474;28;20510;-67
2022/01/10 04:55:04;;;;;;;10.00;4.07;;;6.60;69.30;;;;;;5071010;28;20125;-68
2022/01/10 04:57:30;;;;;;;11.60;4.30;;;6.70;69.40;;;;;;5068161;28;20029;-67
2022/01/10 04:59:56;;;;;;;10.90;4.05;;;6.70;69.50;;;;;;5070910;28;20028;-67
2022/01/10 05:02:22;;;;;;;9.93;4.57;;;6.70;69.40;;;;;;5070144;28;20024;-66
2022/01/10 05:04:48;;;;;;;10.57;4.90;;;6.60;69.40;;;;;;5071118;28;20029;-68
2022/01/10 05:07:14;;;;;;;9.27;4.32;;;6.70;69.50;;;;;;5069569;28;20032;-68
2022/01/10 05:09:40;;;;;;;11.75;4.75;;;6.70;69.60;;;;;;5070397;28;20589;-67
2022/01/10 05:12:06;;;;;;;10.73;4.68;;;6.70;69.70;;;;;;5070841;28;20509;-67
2022/01/10 05:14:33;;;;;;;9.52;4.40;;;6.60;69.90;;;;;;5069829;28;20517;-69
2022/01/10 05:16:59;;;;;;;13.93;5.13;;;6.50;70.10;;;;;;5053291;28;20078;-67
2022/01/10 05:19:24;;;;;;;9.55;4.65;;;6.60;70.30;;;;;;5069614;28;20029;-68
2022/01/10 05:21:50;;;;;;;15.80;5.05;;;6.50;70.30;;;;;;5069435;28;20344;-68
2022/01/10 05:24:16;;;;;;;10.60;4.78;;;6.60;70.50;;;;;;5068785;28;20358;-69
2022/01/10 05:26:42;;;;;;;11.48;4.68;;;6.60;70.60;;;;;;5070756;28;20028;-69
2022/01/10 05:29:07;;;;;;;13.70;4.78;;;6.60;70.60;;;;;;5070021;28;20032;-68
2022/01/10 05:31:33;;;;;;;8.10;4.55;;;6.60;70.90;;;;;;5068740;28;20056;-69
2022/01/10 05:33:59;;;;;;;9.85;4.72;;;6.50;71.00;;;;;;5070521;28;20029;-68
2022/01/10 05:36:25;;;;;;;11.32;4.70;;;6.50;71.20;;;;;;5070195;28;20059;-69
2022/01/10 05:38:51;;;;;;;8.00;4.28;;;6.50;71.20;;;;;;5070102;28;20083;-69
2022/01/10 05:41:17;;;;;;;12.82;5.22;;;6.40;71.30;;;;;;5068131;28;20024;-69
2022/01/10 05:43:43;;;;;;;8.50;4.65;;;6.40;71.40;;;;;;5068636;28;20477;-69
2022/01/10 05:46:12;;;;;;;9.27;4.60;;;6.50;71.60;;;;;;5069115;28;20048;-69
2022/01/10 05:48:40;;;;;;;12.23;5.10;;;6.40;71.50;;;;;;5069330;28;20028;-69
2022/01/10 05:51:06;;;;;;;12.57;5.25;;;6.40;71.60;;;;;;5070922;28;20032;-69
2022/01/10 05:53:32;;;;;;;12.35;4.85;;;6.50;71.50;;;;;;5069335;28;20032;-68
2022/01/10 05:55:58;;;;;;;10.25;5.32;;;6.40;71.30;;;;;;5070596;28;20040;-68
2022/01/10 05:58:24;;;;;;;12.02;5.53;;;6.50;71.40;;;;;;5068762;28;20469;-68
2022/01/10 06:00:49;;;;;;;8.57;4.50;;;6.50;71.40;;;;;;5070226;28;20409;-68
2022/01/10 06:03:15;;;;;;;12.30;5.50;;;6.50;71.20;;;;;;5070476;28;20400;-68
2022/01/10 06:05:41;;;;;;;12.48;6.90;;;6.60;71.10;;;;;;5069135;28;20221;-68
2022/01/10 06:08:26;;;;;;;14.50;5.43;;;6.50;71.00;;;;;;5070678;28;20457;-67
2022/01/10 06:10:52;;;;;;;10.85;5.50;;;6.60;71.10;;;;;;5070425;28;20483;-67
2022/01/10 06:13:18;;;;;;;12.25;5.57;;;6.60;70.90;;;;;;5069182;28;20080;-70
2022/01/10 06:15:44;;;;;;;10.30;5.07;;;6.60;70.80;;;;;;5067768;28;20056;-68
2022/01/10 06:18:09;;;;;;;13.07;5.70;;;6.60;70.80;;;;;;5069532;28;20051;-69
2022/01/10 06:20:35;;;;;;;9.30;5.15;;;6.60;71.00;;;;;;5064909;28;20649;-72
2022/01/10 06:23:01;;;;;;;12.07;5.40;;;6.60;71.00;;;;;;5063528;28;20033;-72
2022/01/10 06:25:27;;;;;;;12.65;5.63;;;6.60;70.80;;;;;;5069289;28;20036;-73
2022/01/10 06:27:54;;;;;;;12.95;5.53;;;6.60;70.50;;;;;;5072783;28;20032;-69
2022/01/10 06:30:20;;;;;;;11.63;6.03;;;6.60;70.40;;;;;;5086905;28;20032;-68
2022/01/10 06:32:46;;;;;;;8.93;5.00;;;6.60;70.40;;;;;;5070609;28;20357;-66
2022/01/10 06:35:12;;;;;;;8.90;4.85;;;6.70;70.40;;;;;;5069312;28;20025;-69
2022/01/10 06:37:38;;;;;;;7.80;4.75;;;6.70;70.20;;;;;;5067630;28;20112;-68
2022/01/10 06:40:05;;;;;;;10.27;5.10;;;6.80;70.00;;;;;;5069086;28;20021;-68
2022/01/10 06:42:31;;;;;;;14.07;5.20;;;6.80;69.70;;;;;;5068670;28;20025;-68
2022/01/10 06:44:57;;;;;;;10.38;5.10;;;6.70;69.50;;;;;;5069405;28;20449;-68
2022/01/10 06:47:24;;;;;;;20.23;5.45;;;6.80;69.50;;;;;;5069329;28;20104;-72
2022/01/10 06:49:49;;;;;;;10.48;4.60;;;6.70;69.30;;;;;;5069016;28;20033;-67
2022/01/10 06:52:16;;;;;;;13.02;4.75;;;6.70;69.30;;;;;;5069706;28;20037;-68
2022/01/10 06:54:41;;;;;;;9.45;4.65;;;6.80;69.20;;;;;;5068997;28;20059;-67
2022/01/10 06:57:07;;;;;;;17.05;5.30;;;6.80;69.00;;;;;;5067962;28;20417;-68
2022/01/10 06:59:33;;;;;;;13.85;4.85;;;6.80;68.70;;;;;;5068499;28;20093;-68
2022/01/10 07:01:59;;;;;;;9.68;4.75;;;6.80;68.60;;;;;;5067292;28;20515;-68
2022/01/10 07:04:26;;;;;;;7.50;4.25;;;6.80;68.40;;;;;;5069130;28;20040;-72
2022/01/10 07:06:52;;;;;;;10.00;4.68;;;6.80;68.10;;;;;;5069482;28;20067;-68
2022/01/10 07:09:18;;;;;;;8.10;4.35;;;6.70;68.10;;;;;;5067893;28;20033;-69
2022/01/10 07:11:44;;;;;;;10.38;4.63;;;6.80;68.30;;;;;;5068305;28;20109;-67
2022/01/10 07:14:11;;;;;;;9.82;4.38;;;6.90;68.00;;;;;;5068973;28;20097;-70
2022/01/10 07:16:37;;;;;;;8.68;4.45;;;6.90;67.90;;;;;;5069379;28;20036;-71
2022/01/10 07:19:03;;;;;;;7.45;4.20;;;6.90;67.80;;;;;;5071977;28;20028;-72
2022/01/10 07:21:30;;;;;;;9.23;5.30;;;6.90;67.80;;;;;;5071521;28;20031;-71
2022/01/10 07:23:55;;;;;;;12.93;5.07;;;6.90;67.70;;;;;;5072365;28;20082;-71
2022/01/10 07:26:23;;;;;;;10.57;5.07;;;6.80;67.50;;;;;;5070805;28;20090;-71
2022/01/10 07:28:49;;;;;;;7.97;4.15;;;6.90;67.60;;;;;;5070365;28;20029;-71
2022/01/10 07:31:15;;;;;;;10.90;4.18;;;6.90;67.50;;;;;;5070768;28;20025;-70
2022/01/10 07:33:40;;;;;;;11.95;6.45;;;7.00;67.30;;;;;;5072255;28;20029;-70
2022/01/10 07:36:06;;;;;;;10.23;4.68;;;6.90;67.10;;;;;;5072441;28;20493;-70
2022/01/10 07:38:35;;;;;;;15.27;5.15;;;6.90;67.20;;;;;;5069791;28;20033;-67
2022/01/10 07:41:03;;;;;;;12.55;5.13;;;6.90;67.40;;;;;;5071306;28;20028;-69
2022/01/10 07:43:28;;;;;;;9.85;5.15;;;6.90;67.70;;;;;;5071044;28;20111;-69
2022/01/10 07:45:54;;;;;;;9.57;4.55;;;6.90;67.90;;;;;;5071332;28;20115;-69
2022/01/10 07:48:20;;;;;;;9.77;5.22;;;6.90;68.40;;;;;;5071389;28;20462;-66
2022/01/10 07:51:08;;;;;;;13.30;5.97;;;6.80;69.00;;;;;;5067966;28;20159;-74
2022/01/10 07:53:35;;;;;;;11.35;6.00;;;6.80;69.50;;;;;;5071609;28;20116;-72
2022/01/10 07:56:01;;;;;;;12.27;5.60;;;6.80;70.00;;;;;;5086726;28;20193;-68
2022/01/10 07:58:27;;;;;;;18.33;6.60;;;6.70;70.70;;;;;;5070472;28;20111;-69
2022/01/10 08:00:52;;;;;;;12.18;6.32;;;6.80;70.80;;;;;;5065060;28;20504;-68
2022/01/10 08:03:18;;;;;;;18.67;7.18;;;6.80;71.10;;;;;;5054565;28;20045;-66
2022/01/10 08:05:44;;;;;;;13.55;6.65;;;6.80;71.50;;;;;;5069194;28;20036;-68
2022/01/10 08:08:09;;;;;;;16.90;6.72;;;6.80;71.60;;;;;;5070012;28;20469;-68
2022/01/10 08:10:35;;;;;;;16.77;6.95;;;6.80;71.50;;;;;;5067575;28;20039;-65
2022/01/10 08:13:01;;;;;;;14.75;7.00;;;6.90;71.60;;;;;;5067865;28;20195;-67
2022/01/10 08:15:27;;;;;;;15.00;7.22;;;6.90;71.60;;;;;;5065251;28;20032;-68
2022/01/10 08:17:52;;;;;;;14.00;6.75;;;7.00;71.40;;;;;;5065019;28;20404;-66
2022/01/10 08:20:18;;;;;;;16.77;7.32;;;7.00;71.30;;;;;;5068746;28;20025;-68
2022/01/10 08:22:44;;;;;;;14.15;6.50;;;7.00;71.30;;;;;;5062699;28;20364;-70
2022/01/10 08:25:10;;;;;;;16.20;6.45;;;7.00;71.30;;;;;;5071148;28;20055;-68
2022/01/10 08:27:36;;;;;;;16.20;7.03;;;6.90;71.30;;;;;;5049577;28;20043;-68
2022/01/10 08:30:04;;;;;;;16.65;8.30;;;6.80;71.60;;;;;;5100256;28;20028;-71
2022/01/10 08:32:30;;;;;;;11.52;6.38;;;6.80;71.90;;;;;;5064181;28;20024;-72
2022/01/10 08:34:56;;;;;;;15.48;6.95;;;6.80;72.00;;;;;;5063552;28;20048;-65
2022/01/10 08:37:22;;;;;;;16.25;7.55;;;6.80;72.20;;;;;;5086328;28;20486;-74
2022/01/10 08:39:49;;;;;;;16.02;6.55;;;6.80;72.20;;;;;;5069048;28;20473;-70
2022/01/10 08:42:16;;;;;;;15.18;7.22;;;6.80;72.20;;;;;;5069084;28;20436;-71
2022/01/10 08:44:43;;;;;;;15.23;6.78;;;6.80;72.10;;;;;;5069957;28;20056;-73
2022/01/10 08:47:09;;;;;;;17.17;8.30;;;6.90;72.00;;;;;;5061952;28;20082;-70
2022/01/10 08:49:34;;;;;;;14.50;6.55;;;6.90;72.20;;;;;;5059991;28;20040;-70
2022/01/10 08:52:00;;;;;;;14.13;6.70;;;6.90;72.20;;;;;;5099539;28;20020;-70
2022/01/10 08:54:26;;;;;;;13.70;6.40;;;6.90;72.00;;;;;;5066935;28;20025;-71
2022/01/10 08:56:53;;;;;;;14.68;7.05;;;7.00;72.10;;;;;;5058290;28;20117;-71
2022/01/10 08:59:19;;;;;;;13.70;7.18;;;7.00;72.10;;;;;;5052724;28;20025;-71
2022/01/10 09:01:46;;;;;;;12.75;7.28;;;7.00;72.00;;;;;;5051712;28;20025;-68
2022/01/10 09:04:16;;;;;;;13.02;6.65;;;7.00;72.00;;;;;;5058858;28;20020;-71
2022/01/10 09:06:46;;;;;;;13.45;6.65;;;7.10;72.00;;;;;;5051806;28;20036;-71
2022/01/10 09:09:13;;;;;;;10.43;7.18;;;7.10;71.90;;;;;;5064333;28;20364;-71
2022/01/10 09:11:40;;;;;;;10.88;6.55;;;7.10;71.90;;;;;;5071378;28;20067;-71
2022/01/10 09:14:06;;;;;;;10.20;6.57;;;7.10;72.00;;;;;;5070588;28;20033;-70
2022/01/10 09:16:32;;;;;;;12.27;6.90;;;7.10;71.90;;;;;;5071208;28;20159;-70
2022/01/10 09:18:58;;;;;;;12.25;6.82;;;7.10;71.80;;;;;;5070447;28;20059;-71
2022/01/10 09:21:25;;;;;;;14.48;7.47;;;7.00;71.80;;;;;;5071932;28;20465;-71
2022/01/10 09:23:51;;;;;;;12.35;7.07;;;6.90;72.40;;;;;;5071800;28;20060;-71
2022/01/10 09:26:17;;;;;;;15.93;7.82;;;7.00;72.40;;;;;;5072481;28;20024;-71
2022/01/10 09:28:43;;;;;;;12.15;6.53;;;7.10;72.30;;;;;;5071320;28;20498;-70
2022/01/10 09:31:12;;;;;;;15.23;7.55;;;7.10;72.00;;;;;;5070234;28;20025;-72
2022/01/10 09:33:42;;;;;;;16.33;7.50;;;7.10;71.90;;;;;;5071125;28;20028;-71
2022/01/10 09:36:08;;;;;;;36.42;10.68;;;7.10;71.90;;;;;;5071803;28;20043;-71
2022/01/10 09:38:34;;;;;;;14.50;7.65;;;7.10;72.10;;;;;;5070480;28;20500;-71
2022/01/10 09:41:00;;;;;;;20.20;8.07;;;7.10;72.00;;;;;;5071389;28;20020;-69
2022/01/10 09:43:26;;;;;;;11.10;7.10;;;7.20;71.90;;;;;;5066179;28;20047;-71
2022/01/10 09:45:53;;;;;;;12.10;8.10;;;7.30;71.60;;;;;;5069586;28;20486;-72
2022/01/10 09:48:19;;;;;;;17.05;8.30;;;7.30;71.50;;;;;;5071706;28;20089;-71
2022/01/10 09:50:45;;;;;;;10.73;7.88;;;7.40;71.70;;;;;;5071177;28;20497;-69
2022/01/10 09:53:13;;;;;;;13.93;7.65;;;7.50;71.40;;;;;;5071469;28;20074;-70
2022/01/10 09:55:39;;;;;;;11.25;8.75;;;7.50;70.70;;;;;;5070893;28;20028;-72
2022/01/10 09:58:06;;;;;;;15.23;9.65;;;7.50;70.80;;;;;;5071596;28;20024;-71
2022/01/10 10:00:32;;;;;;;22.45;10.48;;;7.50;70.70;;;;;;5071352;28;20020;-68
2022/01/10 10:02:59;;;;;;;24.15;11.65;;;7.60;70.60;;;;;;5071749;28;20108;-69
2022/01/10 10:05:24;;;;;;;22.65;11.80;;;7.60;70.60;;;;;;5071496;28;20040;-70
2022/01/10 10:07:51;;;;;;;31.00;13.05;;;7.70;70.50;;;;;;5071153;28;20354;-71
2022/01/10 10:10:18;;;;;;;26.38;12.35;;;7.80;70.40;;;;;;5071540;28;20047;-71
2022/01/10 10:12:49;;;;;;;17.75;11.73;;;7.70;69.70;;;;;;5070736;28;20036;-70
2022/01/10 10:15:18;;;;;;;22.52;14.98;;;7.70;70.30;;;;;;5072628;28;20433;-79
2022/01/10 10:17:44;;;;;;;20.77;14.02;;;7.60;70.00;;;;;;5077570;28;20025;-76
2022/01/10 10:20:15;;;;;;;19.20;12.77;;;7.60;70.50;;;;;;5064780;28;20527;-77
2022/01/10 10:22:43;;;;;;;18.50;12.32;;;7.60;70.70;;;;;;5060394;28;20025;-80
2022/01/10 10:25:10;;;;;;;18.40;13.05;;;7.60;70.50;;;;;;5063035;28;20025;-80
2022/01/10 10:27:42;;;;;;;19.52;12.30;;;7.60;70.70;;;;;;5059778;28;20037;-79
2022/01/10 10:30:15;;;;;;;16.17;11.55;;;7.70;70.40;;;;;;5058822;28;20105;-80
2022/01/10 10:32:41;;;;;;;18.23;12.25;;;7.80;70.10;;;;;;5058689;28;20036;-79
2022/01/10 10:35:08;;;;;;;18.52;12.50;;;7.90;70.00;;;;;;5059258;28;20037;-76
2022/01/10 10:37:41;;;;;;;18.85;13.50;;;7.90;70.00;;;;;;5060629;28;20062;-81
2022/01/10 10:40:10;;;;;;;22.13;12.32;;;8.00;69.60;;;;;;5076490;28;20025;-80
2022/01/10 10:42:39;;;;;;;18.27;12.65;;;7.90;69.20;;;;;;5075349;28;20037;-78
2022/01/10 10:45:07;;;;;;;18.55;12.55;;;7.80;69.50;;;;;;5073221;28;20480;-79
2022/01/10 10:47:35;;;;;;;16.60;12.55;;;7.80;70.00;;;;;;5074853;28;20032;-80
2022/01/10 10:50:03;;;;;;;18.75;13.68;;;7.80;69.60;;;;;;5075501;28;20371;-79
2022/01/10 10:52:33;;;;;;;16.80;11.88;;;7.80;69.80;;;;;;5079262;28;20020;-78
2022/01/10 10:55:10;;;;;;;22.00;14.57;;;7.80;69.90;;;;;;5079828;28;20028;-78
2022/01/10 10:57:36;;;;;;;18.20;13.10;;;7.80;69.80;;;;;;5079262;28;20115;-67
2022/01/10 11:00:06;;;;;;;21.40;13.45;;;7.60;69.90;;;;;;5074880;28;20119;-76
2022/01/10 11:02:32;;;;;;;20.73;13.75;;;7.60;70.40;;;;;;5078065;28;20063;-78
2022/01/10 11:05:02;;;;;;;20.92;14.80;;;7.60;70.50;;;;;;5076520;28;20082;-73
2022/01/10 11:07:31;;;;;;;22.08;13.68;;;7.60;70.50;;;;;;5073595;28;20071;-78
2022/01/10 11:09:58;;;;;;;23.63;16.35;;;7.70;70.40;;;;;;5078048;28;20032;-79
2022/01/10 11:12:24;;;;;;;17.98;13.15;;;7.80;70.60;;;;;;5077097;28;20048;-80
2022/01/10 11:14:56;;;;;;;17.55;13.20;;;7.90;70.00;;;;;;5078148;28;20032;-80
2022/01/10 11:17:22;;;;;;;21.02;13.27;;;7.90;69.70;;;;;;5076994;28;20033;-79
2022/01/10 11:20:13;;;;;;;19.88;14.73;;;8.00;69.60;;;;;;5075258;28;20102;-76
2022/01/10 11:22:44;;;;;;;18.55;13.15;;;8.10;69.20;;;;;;5075577;28;20167;-79
2022/01/10 11:25:30;;;;;;;21.35;13.77;;;8.00;69.10;;;;;;5077382;28;20086;-79
2022/01/10 11:27:58;;;;;;;20.58;14.05;;;8.00;69.10;;;;;;5054469;28;20029;-78
2022/01/10 11:30:38;;;;;;;18.02;13.60;;;8.00;69.30;;;;;;5070721;28;20225;-79
2022/01/10 11:33:13;;;;;;;17.85;13.65;;;7.90;69.30;;;;;;5075501;28;20483;-78
2022/01/10 11:35:42;;;;;;;19.55;13.30;;;7.90;69.30;;;;;;5073599;28;20485;-71
2022/01/10 11:38:35;;;;;;;18.27;13.57;;;7.80;69.50;;;;;;5075036;28;20121;-79
2022/01/10 11:41:14;;;;;;;20.17;13.68;;;7.70;70.30;;;;;;5073562;28;20074;-77
2022/01/10 11:44:03;;;;;;;19.05;13.32;;;7.60;71.10;;;;;;5071271;28;20032;-72
2022/01/10 11:46:39;;;;;;;22.15;13.98;;;7.50;71.30;;;;;;5072970;28;20033;-79
2022/01/10 11:49:18;;;;;;;18.23;13.43;;;7.60;71.40;;;;;;5073924;28;20521;-78
2022/01/10 11:51:50;;;;;;;16.33;12.38;;;7.70;71.30;;;;;;5074616;28;20031;-79
2022/01/10 11:54:34;;;;;;;18.80;13.70;;;7.50;71.30;;;;;;5074606;28;20385;-78
2022/01/10 11:57:05;;;;;;;24.23;13.57;;;7.50;71.60;;;;;;5073888;28;20028;-78
2022/01/10 11:59:38;;;;;;;19.40;13.98;;;7.60;71.60;;;;;;5073883;28;20044;-80
2022/01/10 12:02:12;;;;;;;20.88;14.00;;;7.60;71.70;;;;;;5072662;28;20021;-78
2022/01/10 12:04:40;;;;;;;;;;;7.60;71.80;;;;;;5074720;28;20028;-78
2022/01/10 12:07:08;;;;;;;19.70;13.15;;;7.70;72.60;;;;;;5073987;28;19916;-77
2022/01/10 12:09:35;;;;;;;17.20;12.55;;;7.70;71.40;;;;;;5073626;28;20021;-78
2022/01/10 12:12:03;;;;;;;17.58;12.13;;;7.80;71.30;;;;;;5073013;28;20368;-78
2022/01/10 12:14:30;;;;;;;20.40;13.40;;;7.80;70.90;;;;;;5073128;28;20117;-80
2022/01/10 12:16:57;;;;;;;20.63;13.30;;;7.80;70.90;;;;;;5072724;28;20040;-79
2022/01/10 12:19:23;;;;;;;24.50;14.95;;;7.80;70.80;;;;;;5070551;28;20124;-76
2022/01/10 12:21:50;;;;;;;18.83;13.30;;;7.80;71.00;;;;;;5072466;28;20427;-78
2022/01/10 12:24:16;;;;;;;19.15;13.55;;;7.80;70.80;;;;;;5074150;28;20112;-81
2022/01/10 12:26:43;;;;;;;16.65;12.60;;;7.90;70.50;;;;;;5074321;28;20031;-78
2022/01/10 12:29:11;;;;;;;18.13;13.43;;;7.90;70.70;;;;;;5074338;28;20082;-79
2022/01/10 12:31:39;;;;;;;17.23;13.30;;;7.90;70.10;;;;;;5063112;28;20025;-78
2022/01/10 12:34:08;;;;;;;20.08;14.00;;;7.90;70.00;;;;;;5074860;28;20536;-77
2022/01/10 12:36:35;;;;;;;16.80;13.35;;;7.90;69.90;;;;;;5076726;28;20089;-79
2022/01/10 12:39:15;;;;;;;19.98;13.38;;;7.80;70.10;;;;;;5076078;28;20104;-80
2022/01/10 12:41:41;;;;;;;22.13;14.18;;;7.80;70.00;;;;;;5074847;28;20036;-78
2022/01/10 12:44:07;;;;;;;25.67;14.23;;;7.80;70.30;;;;;;5074085;28;20029;-79
2022/01/10 12:46:33;;;;;;;27.38;14.80;;;7.80;70.40;;;;;;5075499;28;20028;-78
2022/01/10 12:49:06;;;;;;;17.20;12.95;;;7.70;70.40;;;;;;5075163;28;20028;-80
2022/01/10 12:51:45;;;;;;;16.15;12.93;;;7.80;70.40;;;;;;5075556;28;20381;-79
2022/01/10 12:54:16;;;;;;;18.27;14.07;;;7.80;69.90;;;;;;5076938;28;20033;-79
2022/01/10 12:56:42;;;;;;;20.00;13.75;;;7.90;70.30;;;;;;5077850;28;20028;-79